Terminal Aerodrome Forecast
Issued by NWS Cleveland, OH

Home | Current Version | Previous Version | Graphics & Text | Print | Product List | Glossary On
Versions: 1 2 3 4 5 6 7 8 9 10 11 12 13 14 15 16 17 18 19 20
000
FTUS41 KCLE 021700
TAFERI
TAF
KERI 021726Z 0218/0318 21007KT P6SM OVC035
      TEMPO 0218/0220 3SM SHRA OVC015
     FM022100 27008KT P6SM OVC025
      TEMPO 0221/0223 5SM -SHRA OVC015
     FM022300 27006KT P6SM BKN035
     FM030400 VRB03KT P6SM SCT035
      TEMPO 0309/0312 3SM BR=

USA.gov is the U.S. government's official web portal to all federal, state and local government web resources and services.